Time,TemperatureF,DewpointF,PressureIn,WindDirection,WindDirectionDegrees,WindSpeedMPH,WindSpeedGustMPH,Humidity,HourlyPrecipIn,Conditions,Clouds,dailyrainin,SoftwareType,DateUTC
2013-05-14 00:07:00,68.7,54.2,29.71,SW,225,4.7,-999.0,60,-99.99,,,0.00,Acu-Link.com,2013-05-14 05:07:00,
2013-05-14 00:22:00,68.5,54.5,29.71,SSW,202,6.3,-999.0,61,-99.99,,,0.00,Acu-Link.com,2013-05-14 05:22:00,
2013-05-14 00:38:00,68.2,54.7,29.71,SW,225,6.3,-999.0,62,-99.99,,,0.00,Acu-Link.com,2013-05-14 05:38:00,
2013-05-14 00:53:00,67.8,54.7,29.71,SSW,202,4.7,-999.0,63,-99.99,,,0.00,Acu-Link.com,2013-05-14 05:53:00,
2013-05-14 01:08:00,67.5,54.5,29.71,SSW,202,3.2,-999.0,63,-99.99,,,0.00,Acu-Link.com,2013-05-14 06:08:00,
2013-05-14 01:23:00,67.5,54.5,29.70,SSW,202,4.7,-999.0,63,-99.99,,,0.00,Acu-Link.com,2013-05-14 06:23:00,
2013-05-14 01:38:00,67.8,54.7,29.70,SSE,157,3.7,-999.0,63,-99.99,,,0.00,Acu-Link.com,2013-05-14 06:38:00,
2013-05-14 01:54:00,67.3,54.7,29.70,SW,225,3.2,-999.0,64,-99.99,,,0.00,Acu-Link.com,2013-05-14 06:54:00,
2013-05-14 02:09:00,66.6,54.5,29.69,South,180,1.7,-999.0,65,-99.99,,,0.00,Acu-Link.com,2013-05-14 07:09:00,
2013-05-14 02:24:00,66.2,54.5,29.68,South,180,5.8,-999.0,66,-99.99,,,0.00,Acu-Link.com,2013-05-14 07:24:00,
2013-05-14 02:40:00,65.3,54.5,29.69,South,180,1.7,-999.0,68,-99.99,,,0.00,Acu-Link.com,2013-05-14 07:40:00,
2013-05-14 02:55:00,64.6,54.6,29.68,SSE,157,2.7,-999.0,70,-99.99,,,0.00,Acu-Link.com,2013-05-14 07:55:00,
2013-05-14 03:11:00,64.8,54.4,29.68,SSW,202,2.7,-999.0,69,-99.99,,,0.00,Acu-Link.com,2013-05-14 08:11:00,
2013-05-14 03:26:00,64.8,54.4,29.68,SSW,202,2.7,-999.0,69,-99.99,,,0.00,Acu-Link.com,2013-05-14 08:26:00,
2013-05-14 03:41:00,63.7,54.1,29.68,South,180,2.2,-999.0,71,-99.99,,,0.00,Acu-Link.com,2013-05-14 08:41:00,
2013-05-14 03:56:00,62.8,54.0,29.68,SSE,157,3.2,-999.0,73,-99.99,,,0.00,Acu-Link.com,2013-05-14 08:56:00,
2013-05-14 04:11:00,63.0,54.2,29.68,South,180,3.2,-999.0,73,-99.99,,,0.00,Acu-Link.com,2013-05-14 09:11:00,
2013-05-14 04:26:00,63.0,54.6,29.67,South,180,2.7,-999.0,74,-99.99,,,0.00,Acu-Link.com,2013-05-14 09:26:00,
2013-05-14 04:42:00,62.1,54.1,29.67,South,180,2.2,-999.0,75,-99.99,,,0.00,Acu-Link.com,2013-05-14 09:42:00,
2013-05-14 04:57:00,61.2,53.9,29.67,South,180,2.7,-999.0,77,-99.99,,,0.00,Acu-Link.com,2013-05-14 09:57:00,
2013-05-14 05:12:00,61.0,54.1,29.67,South,180,2.2,-999.0,78,-99.99,,,0.00,Acu-Link.com,2013-05-14 10:12:00,
2013-05-14 05:27:00,59.9,53.7,29.66,South,180,3.2,-999.0,80,-99.99,,,0.00,Acu-Link.com,2013-05-14 10:27:00,
2013-05-14 05:42:00,58.8,53.3,29.67,South,180,3.2,-999.0,82,-99.99,,,0.00,Acu-Link.com,2013-05-14 10:42:00,
2013-05-14 05:58:00,59.7,53.9,29.66,South,180,4.2,-999.0,81,-99.99,,,0.00,Acu-Link.com,2013-05-14 10:58:00,
2013-05-14 06:13:00,59.5,53.7,29.66,South,180,4.7,-999.0,81,-99.99,,,0.00,Acu-Link.com,2013-05-14 11:13:00,
2013-05-14 06:28:00,59.9,54.1,29.66,SSE,157,4.7,-999.0,81,-99.99,,,0.00,Acu-Link.com,2013-05-14 11:28:00,
2013-05-14 06:43:00,60.8,54.6,29.65,South,180,4.2,-999.0,80,-99.99,,,0.00,Acu-Link.com,2013-05-14 11:43:00,
2013-05-14 06:59:00,61.5,54.6,29.65,South,180,5.3,-999.0,78,-99.99,,,0.00,Acu-Link.com,2013-05-14 11:59:00,
2013-05-14 07:14:00,63.3,55.2,29.64,South,180,5.3,-999.0,75,-99.99,,,0.00,Acu-Link.com,2013-05-14 12:14:00,
2013-05-14 07:29:00,65.1,56.2,29.64,SSE,157,3.7,-999.0,73,-99.99,,,0.00,Acu-Link.com,2013-05-14 12:29:00,
2013-05-14 07:44:00,67.5,57.4,29.63,SSE,157,3.7,-999.0,70,-99.99,,,0.00,Acu-Link.com,2013-05-14 12:44:00,
2013-05-14 08:00:00,69.8,57.1,29.62,SSE,157,4.2,-999.0,64,-99.99,,,0.00,Acu-Link.com,2013-05-14 13:00:00,
2013-05-14 08:15:00,71.4,57.2,29.62,South,180,4.2,-999.0,61,-99.99,,,0.00,Acu-Link.com,2013-05-14 13:15:00,
2013-05-14 08:30:00,73.2,58.0,29.61,South,180,5.3,-999.0,59,-99.99,,,0.00,Acu-Link.com,2013-05-14 13:30:00,
2013-05-14 08:45:00,74.3,58.1,29.59,SSW,202,4.7,-999.0,57,-99.99,,,0.00,Acu-Link.com,2013-05-14 13:45:00,
2013-05-14 09:00:00,76.1,58.2,29.57,West,270,3.2,-999.0,54,-99.99,,,0.00,Acu-Link.com,2013-05-14 14:00:00,
2013-05-14 09:16:00,78.6,59.5,29.56,South,180,2.7,-999.0,52,-99.99,,,0.00,Acu-Link.com,2013-05-14 14:16:00,
2013-05-14 09:31:00,80.8,58.1,29.55,South,180,3.7,-999.0,46,-99.99,,,0.00,Acu-Link.com,2013-05-14 14:31:00,
2013-05-14 09:46:00,83.3,57.8,29.53,South,180,5.8,-999.0,42,-99.99,,,0.00,Acu-Link.com,2013-05-14 14:46:00,
2013-05-14 10:01:00,86.2,58.3,29.52,ESE,112,4.7,-999.0,39,-99.99,,,0.00,Acu-Link.com,2013-05-14 15:01:00,
2013-05-14 10:16:00,84.9,59.2,29.52,West,270,3.7,-999.0,42,-99.99,,,0.00,Acu-Link.com,2013-05-14 15:16:00,
2013-05-14 10:32:00,85.1,57.3,29.56,SSW,202,6.3,-999.0,39,-99.99,,,0.00,Acu-Link.com,2013-05-14 15:32:00,
2013-05-14 10:47:00,86.0,58.1,29.59,SSW,202,5.8,-999.0,39,-99.99,,,0.00,Acu-Link.com,2013-05-14 15:47:00,
2013-05-14 11:02:00,87.8,56.7,29.60,SW,225,4.2,-999.0,35,-99.99,,,0.00,Acu-Link.com,2013-05-14 16:02:00,
2013-05-14 11:17:00,88.5,56.5,29.60,SSW,202,4.7,-999.0,34,-99.99,,,0.00,Acu-Link.com,2013-05-14 16:17:00,
2013-05-14 11:32:00,89.2,58.7,29.60,SSE,157,11.4,-999.0,36,-99.99,,,0.00,Acu-Link.com,2013-05-14 16:32:00,
2013-05-14 11:48:00,90.3,58.9,29.61,SSW,202,7.8,-999.0,35,-99.99,,,0.00,Acu-Link.com,2013-05-14 16:48:00,
2013-05-14 12:03:00,91.0,59.5,29.60,South,180,13.5,-999.0,35,-99.99,,,0.00,Acu-Link.com,2013-05-14 17:03:00,
2013-05-14 12:18:00,92.7,58.5,29.60,SSW,202,4.2,-999.0,32,-99.99,,,0.00,Acu-Link.com,2013-05-14 17:18:00,
2013-05-14 12:33:00,92.5,56.5,29.60,South,180,6.3,-999.0,30,-99.99,,,0.00,Acu-Link.com,2013-05-14 17:33:00,
2013-05-14 12:49:00,92.5,58.3,29.59,South,180,10.4,-999.0,32,-99.99,,,0.00,Acu-Link.com,2013-05-14 17:49:00,
2013-05-14 13:04:00,93.4,56.3,29.58,South,180,9.4,-999.0,29,-99.99,,,0.00,Acu-Link.com,2013-05-14 18:04:00,
2013-05-14 13:19:00,93.9,56.8,29.58,SE,135,8.9,-999.0,29,-99.99,,,0.00,Acu-Link.com,2013-05-14 18:19:00,
2013-05-14 13:34:00,95.2,55.9,29.57,South,180,11.9,-999.0,27,-99.99,,,0.00,Acu-Link.com,2013-05-14 18:34:00,
2013-05-14 13:49:00,95.2,56.9,29.57,SSE,157,6.3,-999.0,28,-99.99,,,0.00,Acu-Link.com,2013-05-14 18:49:00,
2013-05-14 14:05:00,95.5,55.1,29.56,South,180,9.9,-999.0,26,-99.99,,,0.00,Acu-Link.com,2013-05-14 19:05:00,
2013-05-14 14:20:00,96.8,57.2,29.56,South,180,13.0,-999.0,27,-99.99,,,0.00,Acu-Link.com,2013-05-14 19:20:00,
2013-05-14 14:35:00,96.6,53.8,29.55,SW,225,6.8,-999.0,24,-99.99,,,0.00,Acu-Link.com,2013-05-14 19:35:00,
2013-05-14 14:50:00,97.5,53.4,29.55,SW,225,8.9,-999.0,23,-99.99,,,0.00,Acu-Link.com,2013-05-14 19:50:00,
2013-05-14 15:05:00,96.8,55.1,29.55,South,180,17.1,-999.0,25,-99.99,,,0.00,Acu-Link.com,2013-05-14 20:05:00,
2013-05-14 15:21:00,97.2,53.2,29.53,SSW,202,9.9,-999.0,23,-99.99,,,0.00,Acu-Link.com,2013-05-14 20:21:00,
2013-05-14 15:36:00,97.2,52.0,29.53,SSW,202,7.8,-999.0,22,-99.99,,,0.00,Acu-Link.com,2013-05-14 20:36:00,
2013-05-14 15:51:00,97.0,54.2,29.53,SSW,202,7.3,-999.0,24,-99.99,,,0.00,Acu-Link.com,2013-05-14 20:51:00,
2013-05-14 16:06:00,97.5,52.2,29.53,WSW,247,10.9,-999.0,22,-99.99,,,0.00,Acu-Link.com,2013-05-14 21:06:00,
2013-05-14 16:22:00,97.0,50.5,29.53,WSW,247,6.3,-999.0,21,-99.99,,,0.00,Acu-Link.com,2013-05-14 21:22:00,
2013-05-14 16:37:00,96.6,50.2,29.53,South,180,19.7,-999.0,21,-99.99,,,0.00,Acu-Link.com,2013-05-14 21:37:00,
2013-05-14 16:52:00,96.8,51.6,29.53,SW,225,11.9,-999.0,22,-99.99,,,0.00,Acu-Link.com,2013-05-14 21:52:00,
2013-05-14 17:07:00,96.8,49.1,29.53,SSW,202,9.9,-999.0,20,-99.99,,,0.00,Acu-Link.com,2013-05-14 22:07:00,
2013-05-14 17:23:00,96.4,51.3,29.52,SW,225,5.3,-999.0,22,-99.99,,,0.00,Acu-Link.com,2013-05-14 22:23:00,
2013-05-14 17:38:00,95.9,50.9,29.51,South,180,10.4,-999.0,22,-99.99,,,0.00,Acu-Link.com,2013-05-14 22:38:00,
2013-05-14 17:53:00,95.5,50.6,29.52,SW,225,6.8,-999.0,22,-99.99,,,0.00,Acu-Link.com,2013-05-14 22:53:00,
2013-05-14 18:09:00,94.8,48.7,29.51,South,180,10.9,-999.0,21,-99.99,,,0.00,Acu-Link.com,2013-05-14 23:09:00,
2013-05-14 18:24:00,94.1,51.7,29.51,SSW,202,9.9,-999.0,24,-99.99,,,0.00,Acu-Link.com,2013-05-14 23:24:00,
2013-05-14 18:39:00,93.9,50.4,29.52,SSW,202,7.8,-999.0,23,-99.99,,,0.00,Acu-Link.com,2013-05-14 23:39:00,
2013-05-14 18:54:00,93.4,50.0,29.51,SSW,202,8.9,-999.0,23,-99.99,,,0.00,Acu-Link.com,2013-05-14 23:54:00,
2013-05-14 19:09:00,92.3,50.2,29.51,South,180,9.4,-999.0,24,-99.99,,,0.00,Acu-Link.com,2013-05-15 00:09:00,
2013-05-14 19:25:00,90.3,51.7,29.51,SSW,202,8.9,-999.0,27,-99.99,,,0.00,Acu-Link.com,2013-05-15 00:25:00,
2013-05-14 19:40:00,88.9,52.5,29.52,West,270,10.9,-999.0,29,-99.99,,,0.00,Acu-Link.com,2013-05-15 00:40:00,
2013-05-14 19:55:00,87.6,53.2,29.53,SSE,157,10.4,-999.0,31,-99.99,,,0.00,Acu-Link.com,2013-05-15 00:55:00,
2013-05-14 20:10:00,86.0,53.5,29.53,South,180,9.4,-999.0,33,-99.99,,,0.00,Acu-Link.com,2013-05-15 01:10:00,
2013-05-14 20:26:00,84.6,53.1,29.54,SSW,202,8.9,-999.0,34,-99.99,,,0.00,Acu-Link.com,2013-05-15 01:26:00,
2013-05-14 20:41:00,83.8,53.2,29.55,SSW,202,4.7,-999.0,35,-99.99,,,0.00,Acu-Link.com,2013-05-15 01:41:00,
2013-05-14 20:56:00,82.2,53.3,29.56,South,180,4.7,-999.0,37,-99.99,,,0.00,Acu-Link.com,2013-05-15 01:56:00,
2013-05-14 21:12:00,82.4,53.5,29.56,SSW,202,7.3,-999.0,37,-99.99,,,0.00,Acu-Link.com,2013-05-15 02:12:00,
2013-05-14 21:27:00,81.3,53.2,29.58,WSW,247,4.2,-999.0,38,-99.99,,,0.00,Acu-Link.com,2013-05-15 02:27:00,
2013-05-14 21:42:00,80.8,52.8,29.58,SSW,202,6.3,-999.0,38,-99.99,,,0.00,Acu-Link.com,2013-05-15 02:42:00,
2013-05-14 21:57:00,79.9,52.0,29.59,SW,225,4.7,-999.0,38,-99.99,,,0.00,Acu-Link.com,2013-05-15 02:57:00,
2013-05-14 22:12:00,79.5,51.6,29.59,SSW,202,4.7,-999.0,38,-99.99,,,0.00,Acu-Link.com,2013-05-15 03:12:00,
2013-05-14 22:28:00,78.6,51.6,29.59,SSE,157,6.3,-999.0,39,-99.99,,,0.00,Acu-Link.com,2013-05-15 03:28:00,
2013-05-14 22:43:00,77.9,50.9,29.59,WSW,247,6.3,-999.0,39,-99.99,,,0.00,Acu-Link.com,2013-05-15 03:43:00,
2013-05-14 22:58:00,77.5,50.6,29.60,SW,225,5.3,-999.0,39,-99.99,,,0.00,Acu-Link.com,2013-05-15 03:58:00,
2013-05-14 23:13:00,77.2,50.3,29.60,SSW,202,4.7,-999.0,39,-99.99,,,0.00,Acu-Link.com,2013-05-15 04:13:00,
2013-05-14 23:28:00,76.5,50.4,29.60,South,180,4.7,-999.0,40,-99.99,,,0.00,Acu-Link.com,2013-05-15 04:28:00,
2013-05-14 23:44:00,76.1,50.0,29.60,WSW,247,2.7,-999.0,40,-99.99,,,0.00,Acu-Link.com,2013-05-15 04:44:00,
2013-05-14 23:59:00,75.2,50.5,29.61,SSW,202,7.8,-999.0,42,-99.99,,,0.00,Acu-Link.com,2013-05-15 04:59:00,